sensor_id;sensor_type;location;lat;lon;timestamp;pressure;altitude;pressure_sealevel;temperature;humidity
10992;BME280;5549;47.028;15.514;2023-03-23T00:00:10;96250.13;;;14.22;45.19
10992;BME280;5549;47.028;15.514;2023-03-23T00:02:43;96251.75;;;14.15;45.49
10992;BME280;5549;47.028;15.514;2023-03-23T00:05:14;96245.78;;;14.13;45.70
10992;BME280;5549;47.028;15.514;2023-03-23T00:07:43;96246.78;;;14.12;45.60
10992;BME280;5549;47.028;15.514;2023-03-23T00:10:14;96241.00;;;14.08;45.63
10992;BME280;5549;47.028;15.514;2023-03-23T00:12:43;96240.47;;;14.05;45.63
10992;BME280;5549;47.028;15.514;2023-03-23T00:15:13;96236.03;;;14.05;45.77
10992;BME280;5549;47.028;15.514;2023-03-23T00:17:46;96239.50;;;14.06;45.68
10992;BME280;5549;47.028;15.514;2023-03-23T00:20:16;96242.59;;;14.01;45.95
10992;BME280;5549;47.028;15.514;2023-03-23T00:22:47;96240.13;;;14.00;45.91
10992;BME280;5549;47.028;15.514;2023-03-23T00:25:17;96238.16;;;14.02;45.90
10992;BME280;5549;47.028;15.514;2023-03-23T00:27:46;96233.53;;;14.04;45.65
10992;BME280;5549;47.028;15.514;2023-03-23T00:30:14;96231.38;;;13.99;45.67
10992;BME280;5549;47.028;15.514;2023-03-23T00:32:42;96240.47;;;14.05;45.54
10992;BME280;5549;47.028;15.514;2023-03-23T00:35:12;96238.00;;;14.03;45.73
10992;BME280;5549;47.028;15.514;2023-03-23T00:37:39;96230.22;;;14.02;45.38
10992;BME280;5549;47.028;15.514;2023-03-23T00:40:11;96231.22;;;14.01;45.50
10992;BME280;5549;47.028;15.514;2023-03-23T00:42:39;96230.53;;;13.99;45.39
10992;BME280;5549;47.028;15.514;2023-03-23T00:45:08;96230.88;;;13.96;45.81
10992;BME280;5549;47.028;15.514;2023-03-23T00:47:38;96231.53;;;13.98;45.56
10992;BME280;5549;47.028;15.514;2023-03-23T00:50:07;96226.56;;;13.95;45.48
10992;BME280;5549;47.028;15.514;2023-03-23T00:52:36;96224.75;;;13.95;45.41
10992;BME280;5549;47.028;15.514;2023-03-23T00:55:07;96224.91;;;13.94;45.51
10992;BME280;5549;47.028;15.514;2023-03-23T00:57:36;96222.44;;;13.92;45.74
10992;BME280;5549;47.028;15.514;2023-03-23T01:00:08;96224.25;;;13.92;45.75
10992;BME280;5549;47.028;15.514;2023-03-23T01:02:39;96219.28;;;13.89;45.85
10992;BME280;5549;47.028;15.514;2023-03-23T01:05:12;96216.78;;;13.87;46.09
10992;BME280;5549;47.028;15.514;2023-03-23T01:07:41;96210.47;;;13.80;46.32
10992;BME280;5549;47.028;15.514;2023-03-23T01:10:11;96202.03;;;13.76;45.94
10992;BME280;5549;47.028;15.514;2023-03-23T01:12:44;96207.63;;;13.73;45.32
10992;BME280;5549;47.028;15.514;2023-03-23T01:15:17;96196.41;;;13.71;46.30
10992;BME280;5549;47.028;15.514;2023-03-23T01:17:45;96205.59;;;13.67;46.32
10992;BME280;5549;47.028;15.514;2023-03-23T01:20:14;96200.66;;;13.64;46.17
10992;BME280;5549;47.028;15.514;2023-03-23T01:22:43;96208.88;;;13.61;46.39
10992;BME280;5549;47.028;15.514;2023-03-23T01:25:12;96198.63;;;13.58;46.33
10992;BME280;5549;47.028;15.514;2023-03-23T01:27:40;96199.94;;;13.54;46.04
10992;BME280;5549;47.028;15.514;2023-03-23T01:30:12;96197.75;;;13.49;46.55
10992;BME280;5549;47.028;15.514;2023-03-23T01:32:43;96192.94;;;13.45;46.69
10992;BME280;5549;47.028;15.514;2023-03-23T01:35:12;96196.88;;;13.41;47.17
10992;BME280;5549;47.028;15.514;2023-03-23T01:37:43;96194.56;;;13.38;46.60
10992;BME280;5549;47.028;15.514;2023-03-23T01:40:13;96190.41;;;13.35;46.68
10992;BME280;5549;47.028;15.514;2023-03-23T01:42:42;96187.25;;;13.32;46.59
10992;BME280;5549;47.028;15.514;2023-03-23T01:45:28;96191.88;;;13.30;47.21
10992;BME280;5549;47.028;15.514;2023-03-23T01:48:03;96187.22;;;13.24;47.24
10992;BME280;5549;47.028;15.514;2023-03-23T01:50:41;96180.28;;;13.23;47.10
10992;BME280;5549;47.028;15.514;2023-03-23T01:53:11;96175.16;;;13.21;47.00
10992;BME280;5549;47.028;15.514;2023-03-23T01:55:43;96173.66;;;13.19;47.27
10992;BME280;5549;47.028;15.514;2023-03-23T01:58:17;96167.72;;;13.16;47.02
10992;BME280;5549;47.028;15.514;2023-03-23T02:00:48;96172.13;;;13.16;47.56
10992;BME280;5549;47.028;15.514;2023-03-23T02:03:16;96168.66;;;13.15;47.78
10992;BME280;5549;47.028;15.514;2023-03-23T02:05:44;96168.16;;;13.12;47.83
10992;BME280;5549;47.028;15.514;2023-03-23T02:08:12;96168.28;;;13.10;47.85
10992;BME280;5549;47.028;15.514;2023-03-23T02:10:42;96170.09;;;13.10;48.38
10992;BME280;5549;47.028;15.514;2023-03-23T02:13:13;96175.16;;;13.03;48.74
10992;BME280;5549;47.028;15.514;2023-03-23T02:15:52;96174.66;;;13.00;48.98
10992;BME280;5549;47.028;15.514;2023-03-23T02:18:47;96174.28;;;12.95;48.39
10992;BME280;5549;47.028;15.514;2023-03-23T02:22:05;96178.19;;;12.91;48.17
10992;BME280;5549;47.028;15.514;2023-03-23T02:24:57;96176.03;;;12.86;48.05
10992;BME280;5549;47.028;15.514;2023-03-23T02:30:59;96176.78;;;12.78;48.17
10992;BME280;5549;47.028;15.514;2023-03-23T02:33:38;96179.56;;;12.77;48.09
10992;BME280;5549;47.028;15.514;2023-03-23T02:36:19;96172.94;;;12.73;48.02
10992;BME280;5549;47.028;15.514;2023-03-23T02:38:57;96177.53;;;12.71;47.88
10992;BME280;5549;47.028;15.514;2023-03-23T02:41:34;96174.22;;;12.69;48.30
10992;BME280;5549;47.028;15.514;2023-03-23T02:44:05;96179.78;;;12.66;48.51
10992;BME280;5549;47.028;15.514;2023-03-23T02:46:35;96173.84;;;12.64;49.12
10992;BME280;5549;47.028;15.514;2023-03-23T02:49:06;96177.75;;;12.60;49.73
10992;BME280;5549;47.028;15.514;2023-03-23T02:51:37;96181.97;;;12.52;50.01
10992;BME280;5549;47.028;15.514;2023-03-23T02:54:07;96178.97;;;12.47;49.78
10992;BME280;5549;47.028;15.514;2023-03-23T02:56:40;96178.44;;;12.44;49.79
10992;BME280;5549;47.028;15.514;2023-03-23T02:59:10;96176.56;;;12.36;50.30
10992;BME280;5549;47.028;15.514;2023-03-23T03:02:00;96174.97;;;12.26;50.98
10992;BME280;5549;47.028;15.514;2023-03-23T03:04:31;96179.53;;;12.24;50.07
10992;BME280;5549;47.028;15.514;2023-03-23T03:07:37;96173.06;;;12.18;50.41
10992;BME280;5549;47.028;15.514;2023-03-23T03:10:22;96169.25;;;12.03;51.01
10992;BME280;5549;47.028;15.514;2023-03-23T03:12:58;96172.63;;;11.95;51.61
10992;BME280;5549;47.028;15.514;2023-03-23T03:15:35;96179.88;;;11.83;51.88
10992;BME280;5549;47.028;15.514;2023-03-23T03:18:10;96172.66;;;11.85;52.17
10992;BME280;5549;47.028;15.514;2023-03-23T03:20:46;96175.75;;;11.71;53.32
10992;BME280;5549;47.028;15.514;2023-03-23T03:23:20;96179.22;;;11.72;52.27
10992;BME280;5549;47.028;15.514;2023-03-23T03:25:50;96184.28;;;11.46;53.84
10992;BME280;5549;47.028;15.514;2023-03-23T03:28:22;96175.63;;;11.26;54.59
10992;BME280;5549;47.028;15.514;2023-03-23T03:30:54;96174.41;;;11.20;54.77
10992;BME280;5549;47.028;15.514;2023-03-23T03:33:25;96180.75;;;11.28;54.48
10992;BME280;5549;47.028;15.514;2023-03-23T03:35:54;96177.03;;;11.20;55.13
10992;BME280;5549;47.028;15.514;2023-03-23T03:38:26;96171.09;;;11.18;54.98
10992;BME280;5549;47.028;15.514;2023-03-23T03:40:55;96174.91;;;11.34;53.46
10992;BME280;5549;47.028;15.514;2023-03-23T03:43:25;96180.88;;;11.36;54.17
10992;BME280;5549;47.028;15.514;2023-03-23T03:45:53;96178.50;;;11.42;53.48
10992;BME280;5549;47.028;15.514;2023-03-23T03:48:20;96185.00;;;11.38;53.10
10992;BME280;5549;47.028;15.514;2023-03-23T03:50:48;96179.59;;;11.40;53.95
10992;BME280;5549;47.028;15.514;2023-03-23T03:53:19;96188.19;;;11.42;53.54
10992;BME280;5549;47.028;15.514;2023-03-23T03:55:49;96181.94;;;11.43;53.02
10992;BME280;5549;47.028;15.514;2023-03-23T03:58:21;96187.91;;;11.45;53.37
10992;BME280;5549;47.028;15.514;2023-03-23T04:00:51;96188.56;;;11.47;52.53
10992;BME280;5549;47.028;15.514;2023-03-23T04:03:19;96190.91;;;11.50;53.12
10992;BME280;5549;47.028;15.514;2023-03-23T04:05:46;96196.88;;;11.52;52.61
10992;BME280;5549;47.028;15.514;2023-03-23T04:08:14;96194.09;;;11.53;52.79
10992;BME280;5549;47.028;15.514;2023-03-23T04:10:45;96194.78;;;11.55;52.87
10992;BME280;5549;47.028;15.514;2023-03-23T04:13:19;96193.25;;;11.53;53.25
10992;BME280;5549;47.028;15.514;2023-03-23T04:15:49;96197.69;;;11.52;52.86
10992;BME280;5549;47.028;15.514;2023-03-23T04:18:20;96196.03;;;11.51;52.15
10992;BME280;5549;47.028;15.514;2023-03-23T04:20:48;96191.91;;;11.49;53.06
10992;BME280;5549;47.028;15.514;2023-03-23T04:23:20;96190.66;;;11.43;53.50
10992;BME280;5549;47.028;15.514;2023-03-23T04:25:52;96193.56;;;11.40;53.01
10992;BME280;5549;47.028;15.514;2023-03-23T04:28:26;96193.31;;;11.34;53.56
10992;BME280;5549;47.028;15.514;2023-03-23T04:30:55;96192.34;;;11.35;53.45
10992;BME280;5549;47.028;15.514;2023-03-23T04:33:27;96201.06;;;11.35;52.61
10992;BME280;5549;47.028;15.514;2023-03-23T04:35:59;96196.63;;;11.36;53.17
10992;BME280;5549;47.028;15.514;2023-03-23T04:38:31;96192.50;;;11.33;53.61
10992;BME280;5549;47.028;15.514;2023-03-23T04:41:01;96196.63;;;11.36;52.45
10992;BME280;5549;47.028;15.514;2023-03-23T04:43:28;96201.09;;;11.25;53.91
10992;BME280;5549;47.028;15.514;2023-03-23T04:45:58;96198.19;;;11.19;53.71
10992;BME280;5549;47.028;15.514;2023-03-23T04:48:30;96198.91;;;11.11;55.09
10992;BME280;5549;47.028;15.514;2023-03-23T04:51:02;96197.94;;;11.12;54.36
10992;BME280;5549;47.028;15.514;2023-03-23T04:53:30;96205.41;;;11.07;54.61
10992;BME280;5549;47.028;15.514;2023-03-23T04:56:02;96203.91;;;10.85;56.23
10992;BME280;5549;47.028;15.514;2023-03-23T04:58:30;96205.03;;;10.83;56.61
10992;BME280;5549;47.028;15.514;2023-03-23T05:01:03;96204.19;;;10.82;56.28
10992;BME280;5549;47.028;15.514;2023-03-23T05:03:33;96200.31;;;10.86;55.66
10992;BME280;5549;47.028;15.514;2023-03-23T05:06:02;96206.41;;;10.77;56.45
10992;BME280;5549;47.028;15.514;2023-03-23T05:08:29;96199.50;;;10.86;55.54
10992;BME280;5549;47.028;15.514;2023-03-23T05:11:00;96204.47;;;10.89;55.63
10992;BME280;5549;47.028;15.514;2023-03-23T05:13:31;96199.75;;;10.92;55.60
10992;BME280;5549;47.028;15.514;2023-03-23T05:16:04;96197.00;;;10.65;57.54
10992;BME280;5549;47.028;15.514;2023-03-23T05:18:35;96213.59;;;10.75;57.76
10992;BME280;5549;47.028;15.514;2023-03-23T05:21:04;96207.38;;;10.86;56.53
10992;BME280;5549;47.028;15.514;2023-03-23T05:23:34;96206.69;;;10.84;56.99
10992;BME280;5549;47.028;15.514;2023-03-23T05:26:05;96207.78;;;10.81;56.71
10992;BME280;5549;47.028;15.514;2023-03-23T05:28:32;96210.13;;;10.94;56.38
10992;BME280;5549;47.028;15.514;2023-03-23T05:31:03;96213.16;;;10.99;57.18
10992;BME280;5549;47.028;15.514;2023-03-23T05:33:30;96214.97;;;10.99;57.17
10992;BME280;5549;47.028;15.514;2023-03-23T05:35:58;96213.97;;;11.09;56.72
10992;BME280;5549;47.028;15.514;2023-03-23T05:38:27;96213.97;;;11.09;56.38
10992;BME280;5549;47.028;15.514;2023-03-23T05:40:58;96218.69;;;11.15;55.62
10992;BME280;5549;47.028;15.514;2023-03-23T05:43:28;96220.63;;;11.13;56.02
10992;BME280;5549;47.028;15.514;2023-03-23T05:45:56;96222.97;;;11.16;55.81
10992;BME280;5549;47.028;15.514;2023-03-23T05:48:24;96228.91;;;11.18;56.74
10992;BME280;5549;47.028;15.514;2023-03-23T05:50:52;96227.91;;;11.29;55.72
10992;BME280;5549;47.028;15.514;2023-03-23T05:53:19;96231.50;;;11.38;56.01
10992;BME280;5549;47.028;15.514;2023-03-23T05:55:47;96230.09;;;11.43;56.14
10992;BME280;5549;47.028;15.514;2023-03-23T05:58:17;96229.53;;;11.49;55.97
10992;BME280;5549;47.028;15.514;2023-03-23T06:00:48;96233.53;;;11.53;55.64
10992;BME280;5549;47.028;15.514;2023-03-23T06:03:18;96230.06;;;11.53;56.13
10992;BME280;5549;47.028;15.514;2023-03-23T06:05:49;96237.09;;;11.62;55.55
10992;BME280;5549;47.028;15.514;2023-03-23T06:08:19;96246.25;;;11.58;55.99
10992;BME280;5549;47.028;15.514;2023-03-23T06:10:49;96241.25;;;11.65;55.70
10992;BME280;5549;47.028;15.514;2023-03-23T06:13:17;96243.84;;;11.74;55.27
10992;BME280;5549;47.028;15.514;2023-03-23T06:15:48;96240.38;;;11.83;54.95
10992;BME280;5549;47.028;15.514;2023-03-23T06:18:18;96246.44;;;11.94;54.26
10992;BME280;5549;47.028;15.514;2023-03-23T06:20:47;96243.53;;;11.97;54.48
10992;BME280;5549;47.028;15.514;2023-03-23T06:23:14;96250.97;;;12.01;54.93
10992;BME280;5549;47.028;15.514;2023-03-23T06:25:44;96245.13;;;12.07;53.82
10992;BME280;5549;47.028;15.514;2023-03-23T06:28:12;96248.19;;;12.03;54.20
10992;BME280;5549;47.028;15.514;2023-03-23T06:30:39;96247.06;;;12.15;53.52
10992;BME280;5549;47.028;15.514;2023-03-23T06:33:08;96256.50;;;12.08;54.05
10992;BME280;5549;47.028;15.514;2023-03-23T06:35:39;96256.19;;;12.11;53.55
10992;BME280;5549;47.028;15.514;2023-03-23T06:38:07;96262.56;;;12.18;53.84
10992;BME280;5549;47.028;15.514;2023-03-23T06:40:35;96260.63;;;12.20;54.03
10992;BME280;5549;47.028;15.514;2023-03-23T06:43:03;96263.53;;;12.17;54.22
10992;BME280;5549;47.028;15.514;2023-03-23T06:45:31;96264.53;;;12.16;53.82
10992;BME280;5549;47.028;15.514;2023-03-23T06:48:01;96257.44;;;12.16;53.25
10992;BME280;5549;47.028;15.514;2023-03-23T06:50:30;96246.97;;;12.34;55.76
10992;BME280;5549;47.028;15.514;2023-03-23T06:52:57;96259.34;;;12.69;61.67
10992;BME280;5549;47.028;15.514;2023-03-23T06:55:25;96249.34;;;13.08;61.14
10992;BME280;5549;47.028;15.514;2023-03-23T06:57:52;96256.63;;;13.50;59.41
10992;BME280;5549;47.028;15.514;2023-03-23T07:00:22;96258.72;;;13.90;57.61
10992;BME280;5549;47.028;15.514;2023-03-23T07:02:52;96264.66;;;14.26;55.57
10992;BME280;5549;47.028;15.514;2023-03-23T07:05:19;96266.81;;;14.65;54.26
10992;BME280;5549;47.028;15.514;2023-03-23T07:07:48;96258.94;;;14.97;52.48
10992;BME280;5549;47.028;15.514;2023-03-23T07:10:18;96259.97;;;15.29;51.30
10992;BME280;5549;47.028;15.514;2023-03-23T07:12:47;96255.69;;;15.60;50.02
10992;BME280;5549;47.028;15.514;2023-03-23T07:15:17;96248.69;;;15.92;49.28
10992;BME280;5549;47.028;15.514;2023-03-23T07:17:45;96249.25;;;16.26;48.77
10992;BME280;5549;47.028;15.514;2023-03-23T07:20:16;96257.72;;;16.53;47.53
10992;BME280;5549;47.028;15.514;2023-03-23T07:22:44;96252.97;;;16.79;46.93
10992;BME280;5549;47.028;15.514;2023-03-23T07:25:15;96257.59;;;16.85;45.64
10992;BME280;5549;47.028;15.514;2023-03-23T07:27:44;96256.13;;;17.06;45.69
10992;BME280;5549;47.028;15.514;2023-03-23T07:30:13;96259.78;;;17.27;45.83
10992;BME280;5549;47.028;15.514;2023-03-23T07:32:43;96257.31;;;17.49;45.54
10992;BME280;5549;47.028;15.514;2023-03-23T07:35:11;96255.00;;;17.69;44.89
10992;BME280;5549;47.028;15.514;2023-03-23T07:37:39;96258.16;;;17.87;44.71
10992;BME280;5549;47.028;15.514;2023-03-23T07:40:09;96255.50;;;18.02;44.22
10992;BME280;5549;47.028;15.514;2023-03-23T07:42:41;96254.31;;;18.04;43.99
10992;BME280;5549;47.028;15.514;2023-03-23T07:45:12;96256.78;;;18.20;44.06
10992;BME280;5549;47.028;15.514;2023-03-23T07:47:40;96255.50;;;18.02;43.55
10992;BME280;5549;47.028;15.514;2023-03-23T07:50:09;96254.78;;;18.22;43.62
10992;BME280;5549;47.028;15.514;2023-03-23T07:52:40;96259.63;;;18.34;42.74
10992;BME280;5549;47.028;15.514;2023-03-23T07:55:12;96256.59;;;18.51;43.61
10992;BME280;5549;47.028;15.514;2023-03-23T07:57:48;96257.97;;;18.62;43.56
10992;BME280;5549;47.028;15.514;2023-03-23T08:00:18;96264.19;;;18.69;42.61
10992;BME280;5549;47.028;15.514;2023-03-23T08:02:47;96268.88;;;19.18;42.29
10992;BME280;5549;47.028;15.514;2023-03-23T08:05:18;96265.88;;;19.28;42.01
10992;BME280;5549;47.028;15.514;2023-03-23T08:07:50;96262.03;;;19.30;40.50
10992;BME280;5549;47.028;15.514;2023-03-23T08:10:18;96258.09;;;19.47;41.48
10992;BME280;5549;47.028;15.514;2023-03-23T08:12:53;96259.28;;;19.66;41.57
10992;BME280;5549;47.028;15.514;2023-03-23T08:15:23;96253.38;;;19.71;41.45
10992;BME280;5549;47.028;15.514;2023-03-23T08:17:51;96248.97;;;19.84;41.08
10992;BME280;5549;47.028;15.514;2023-03-23T08:20:19;96254.00;;;20.01;41.11
10992;BME280;5549;47.028;15.514;2023-03-23T08:22:53;96250.38;;;20.08;40.48
10992;BME280;5549;47.028;15.514;2023-03-23T08:25:24;96247.91;;;20.07;39.96
10992;BME280;5549;47.028;15.514;2023-03-23T08:27:54;96249.13;;;20.04;38.83
10992;BME280;5549;47.028;15.514;2023-03-23T08:30:22;96242.28;;;19.95;39.27
10992;BME280;5549;47.028;15.514;2023-03-23T08:32:51;96238.22;;;19.71;39.56
10992;BME280;5549;47.028;15.514;2023-03-23T08:35:19;96240.34;;;19.54;39.87
10992;BME280;5549;47.028;15.514;2023-03-23T08:37:47;96250.16;;;19.33;39.85
10992;BME280;5549;47.028;15.514;2023-03-23T08:40:19;96246.19;;;18.86;40.20
10992;BME280;5549;47.028;15.514;2023-03-23T08:42:50;96248.16;;;18.48;41.59
10992;BME280;5549;47.028;15.514;2023-03-23T08:45:24;96246.16;;;18.20;42.00
10992;BME280;5549;47.028;15.514;2023-03-23T08:47:54;96245.50;;;18.48;42.06
10992;BME280;5549;47.028;15.514;2023-03-23T08:50:25;96249.47;;;17.93;43.14
10992;BME280;5549;47.028;15.514;2023-03-23T08:52:54;96253.75;;;17.94;42.77
10992;BME280;5549;47.028;15.514;2023-03-23T08:55:24;96256.69;;;18.28;42.65
10992;BME280;5549;47.028;15.514;2023-03-23T08:57:55;96259.63;;;18.34;42.45
10992;BME280;5549;47.028;15.514;2023-03-23T09:00:25;96266.59;;;18.35;42.34
10992;BME280;5549;47.028;15.514;2023-03-23T09:02:54;96260.81;;;18.31;42.09
10992;BME280;5549;47.028;15.514;2023-03-23T09:05:25;96257.63;;;18.36;42.08
10992;BME280;5549;47.028;15.514;2023-03-23T09:07:57;96261.47;;;18.18;42.34
10992;BME280;5549;47.028;15.514;2023-03-23T09:10:27;96262.94;;;18.36;41.95
10992;BME280;5549;47.028;15.514;2023-03-23T09:12:56;96260.09;;;18.37;42.52
10992;BME280;5549;47.028;15.514;2023-03-23T09:15:25;96259.81;;;18.47;43.17
10992;BME280;5549;47.028;15.514;2023-03-23T09:17:53;96258.50;;;18.57;42.21
10992;BME280;5549;47.028;15.514;2023-03-23T09:20:26;96270.06;;;18.79;41.91
10992;BME280;5549;47.028;15.514;2023-03-23T09:22:56;96270.31;;;18.84;40.76
10992;BME280;5549;47.028;15.514;2023-03-23T09:25:27;96271.47;;;18.97;41.42
10992;BME280;5549;47.028;15.514;2023-03-23T09:27:57;96273.88;;;18.91;41.30
10992;BME280;5549;47.028;15.514;2023-03-23T09:30:29;96266.31;;;19.10;42.52
10992;BME280;5549;47.028;15.514;2023-03-23T09:32:59;96262.66;;;19.11;41.13
10992;BME280;5549;47.028;15.514;2023-03-23T09:35:28;96252.38;;;19.29;41.18
10992;BME280;5549;47.028;15.514;2023-03-23T09:37:57;96262.78;;;19.45;40.42
10992;BME280;5549;47.028;15.514;2023-03-23T09:40:35;96252.56;;;19.70;41.04
10992;BME280;5549;47.028;15.514;2023-03-23T09:43:36;96253.28;;;19.58;39.54
10992;BME280;5549;47.028;15.514;2023-03-23T09:46:27;96249.06;;;19.98;40.86
10992;BME280;5549;47.028;15.514;2023-03-23T09:49:02;96240.97;;;20.12;39.61
10992;BME280;5549;47.028;15.514;2023-03-23T09:51:40;96242.06;;;20.25;39.35
10992;BME280;5549;47.028;15.514;2023-03-23T09:54:19;96243.97;;;20.03;38.54
10992;BME280;5549;47.028;15.514;2023-03-23T09:56:51;96243.88;;;20.17;38.45
10992;BME280;5549;47.028;15.514;2023-03-23T09:59:26;96233.97;;;20.11;37.22
10992;BME280;5549;47.028;15.514;2023-03-23T10:02:12;96224.34;;;20.45;38.98
10992;BME280;5549;47.028;15.514;2023-03-23T10:04:45;96225.66;;;20.69;38.42
10992;BME280;5549;47.028;15.514;2023-03-23T10:07:15;96225.03;;;20.60;37.44
10992;BME280;5549;47.028;15.514;2023-03-23T10:09:46;96225.75;;;20.89;36.04
10992;BME280;5549;47.028;15.514;2023-03-23T10:12:26;96223.94;;;20.48;35.64
10992;BME280;5549;47.028;15.514;2023-03-23T10:15:12;96219.63;;;20.95;37.11
10992;BME280;5549;47.028;15.514;2023-03-23T10:17:48;96211.63;;;21.08;36.78
10992;BME280;5549;47.028;15.514;2023-03-23T10:20:32;96216.00;;;21.22;35.76
10992;BME280;5549;47.028;15.514;2023-03-23T10:23:13;96218.41;;;21.10;35.26
10992;BME280;5549;47.028;15.514;2023-03-23T10:26:00;96200.75;;;21.16;35.49
10992;BME280;5549;47.028;15.514;2023-03-23T10:28:37;96201.72;;;20.89;35.79
10992;BME280;5549;47.028;15.514;2023-03-23T10:31:09;96201.94;;;20.94;36.26
10992;BME280;5549;47.028;15.514;2023-03-23T10:33:42;96191.59;;;20.71;37.08
10992;BME280;5549;47.028;15.514;2023-03-23T10:36:17;96200.25;;;20.79;36.31
10992;BME280;5549;47.028;15.514;2023-03-23T10:38:57;96193.31;;;20.92;38.66
10992;BME280;5549;47.028;15.514;2023-03-23T10:41:25;96187.63;;;21.21;38.12
10992;BME280;5549;47.028;15.514;2023-03-23T10:43:55;96193.41;;;21.31;38.56
10992;BME280;5549;47.028;15.514;2023-03-23T10:46:45;96195.00;;;21.06;36.44
10992;BME280;5549;47.028;15.514;2023-03-23T10:49:20;96189.88;;;21.11;36.94
10992;BME280;5549;47.028;15.514;2023-03-23T10:51:56;96177.16;;;21.53;37.96
10992;BME280;5549;47.028;15.514;2023-03-23T10:54:46;96180.47;;;21.48;36.51
10992;BME280;5549;47.028;15.514;2023-03-23T10:57:23;96183.94;;;21.62;35.58
10992;BME280;5549;47.028;15.514;2023-03-23T10:59:51;96179.56;;;21.94;35.19
10992;BME280;5549;47.028;15.514;2023-03-23T11:02:24;96175.28;;;21.80;35.51
10992;BME280;5549;47.028;15.514;2023-03-23T11:05:02;96181.69;;;22.56;36.90
10992;BME280;5549;47.028;15.514;2023-03-23T11:07:35;96183.50;;;22.62;32.84
10992;BME280;5549;47.028;15.514;2023-03-23T11:10:16;96186.72;;;22.78;33.16
10992;BME280;5549;47.028;15.514;2023-03-23T11:12:47;96173.31;;;22.91;33.58
10992;BME280;5549;47.028;15.514;2023-03-23T11:15:27;96190.47;;;22.70;31.47
10992;BME280;5549;47.028;15.514;2023-03-23T11:17:59;96188.22;;;22.67;33.68
10992;BME280;5549;47.028;15.514;2023-03-23T11:20:38;96186.63;;;22.59;31.94
10992;BME280;5549;47.028;15.514;2023-03-23T11:23:21;96179.09;;;22.88;31.79
10992;BME280;5549;47.028;15.514;2023-03-23T11:25:57;96187.22;;;22.61;32.10
10992;BME280;5549;47.028;15.514;2023-03-23T11:28:36;96191.16;;;22.52;31.87
10992;BME280;5549;47.028;15.514;2023-03-23T11:31:07;96191.38;;;22.44;32.65
10992;BME280;5549;47.028;15.514;2023-03-23T11:33:49;96191.56;;;22.49;32.86
10992;BME280;5549;47.028;15.514;2023-03-23T11:36:19;96186.94;;;22.25;32.65
10992;BME280;5549;47.028;15.514;2023-03-23T11:38:54;96188.47;;;22.52;32.82
10992;BME280;5549;47.028;15.514;2023-03-23T11:41:24;96186.28;;;22.36;33.65
10992;BME280;5549;47.028;15.514;2023-03-23T11:43:53;96178.00;;;22.44;33.34
10992;BME280;5549;47.028;15.514;2023-03-23T11:46:33;96173.13;;;22.28;32.95
10992;BME280;5549;47.028;15.514;2023-03-23T11:49:13;96180.75;;;22.31;32.32
10992;BME280;5549;47.028;15.514;2023-03-23T11:51:48;96180.16;;;22.22;33.47
10992;BME280;5549;47.028;15.514;2023-03-23T11:54:24;96183.69;;;22.09;33.66
10992;BME280;5549;47.028;15.514;2023-03-23T11:56:54;96173.19;;;22.01;33.67
10992;BME280;5549;47.028;15.514;2023-03-23T11:59:29;96165.00;;;22.03;34.14
10992;BME280;5549;47.028;15.514;2023-03-23T12:02:21;96168.66;;;22.08;34.56
10992;BME280;5549;47.028;15.514;2023-03-23T12:05:27;96171.44;;;22.40;33.66
10992;BME280;5549;47.028;15.514;2023-03-23T12:08:26;96170.19;;;22.42;34.10
10992;BME280;5549;47.028;15.514;2023-03-23T12:11:06;96163.00;;;22.36;32.46
10992;BME280;5549;47.028;15.514;2023-03-23T12:13:51;96169.19;;;22.37;34.20
10992;BME280;5549;47.028;15.514;2023-03-23T12:16:32;96170.00;;;22.37;34.63
10992;BME280;5549;47.028;15.514;2023-03-23T12:19:09;96166.44;;;22.50;35.02
10992;BME280;5549;47.028;15.514;2023-03-23T12:21:52;96170.44;;;22.34;33.83
10992;BME280;5549;47.028;15.514;2023-03-23T12:24:36;96164.88;;;22.36;34.64
10992;BME280;5549;47.028;15.514;2023-03-23T12:27:13;96156.41;;;22.39;34.93
10992;BME280;5549;47.028;15.514;2023-03-23T12:30:02;96148.13;;;22.60;34.02
10992;BME280;5549;47.028;15.514;2023-03-23T12:32:58;96149.72;;;22.68;33.93
10992;BME280;5549;47.028;15.514;2023-03-23T12:35:42;96145.06;;;22.44;33.75
10992;BME280;5549;47.028;15.514;2023-03-23T12:38:31;96142.09;;;22.71;33.49
10992;BME280;5549;47.028;15.514;2023-03-23T12:41:12;96141.75;;;22.55;33.05
10992;BME280;5549;47.028;15.514;2023-03-23T12:43:54;96137.16;;;22.68;32.41
10992;BME280;5549;47.028;15.514;2023-03-23T12:46:51;96135.09;;;22.70;32.90
10992;BME280;5549;47.028;15.514;2023-03-23T12:49:29;96135.44;;;22.36;33.02
10992;BME280;5549;47.028;15.514;2023-03-23T12:52:06;96138.47;;;22.46;34.06
10992;BME280;5549;47.028;15.514;2023-03-23T12:54:42;96136.41;;;22.48;33.04
10992;BME280;5549;47.028;15.514;2023-03-23T12:57:26;96122.81;;;22.50;33.70
10992;BME280;5549;47.028;15.514;2023-03-23T13:00:05;96122.91;;;22.30;34.02
10992;BME280;5549;47.028;15.514;2023-03-23T13:02:43;96130.63;;;21.93;33.90
10992;BME280;5549;47.028;15.514;2023-03-23T13:05:32;96121.50;;;22.21;34.26
10992;BME280;5549;47.028;15.514;2023-03-23T13:08:07;96112.38;;;21.84;33.99
10992;BME280;5549;47.028;15.514;2023-03-23T13:10:45;96103.72;;;21.88;34.96
10992;BME280;5549;47.028;15.514;2023-03-23T13:13:19;96099.84;;;22.35;34.56
10992;BME280;5549;47.028;15.514;2023-03-23T13:15:57;96093.56;;;22.17;34.01
10992;BME280;5549;47.028;15.514;2023-03-23T13:18:40;96093.84;;;21.82;34.52
10992;BME280;5549;47.028;15.514;2023-03-23T13:21:18;96088.63;;;22.14;35.04
10992;BME280;5549;47.028;15.514;2023-03-23T13:23:50;96087.63;;;22.08;34.30
10992;BME280;5549;47.028;15.514;2023-03-23T13:26:23;96084.34;;;22.06;34.24
10992;BME280;5549;47.028;15.514;2023-03-23T13:29:00;96090.94;;;22.03;33.29
10992;BME280;5549;47.028;15.514;2023-03-23T13:31:34;96088.44;;;22.08;33.66
10992;BME280;5549;47.028;15.514;2023-03-23T13:34:10;96084.91;;;22.15;33.77